sensor_id;sensor_type;location;lat;lon;timestamp;P1;durP1;ratioP1;P2;durP2;ratioP2
74158;SDS011;62511;47.970;11.774;2024-03-17T00:00:22;4.93;;;2.10;;
74158;SDS011;62511;47.970;11.774;2024-03-17T00:02:48;3.17;;;1.73;;
74158;SDS011;62511;47.970;11.774;2024-03-17T00:05:14;4.78;;;2.15;;
74158;SDS011;62511;47.970;11.774;2024-03-17T00:07:40;3.88;;;1.75;;
74158;SDS011;62511;47.970;11.774;2024-03-17T00:10:07;3.17;;;1.40;;
74158;SDS011;62511;47.970;11.774;2024-03-17T00:12:34;6.95;;;2.28;;
74158;SDS011;62511;47.970;11.774;2024-03-17T00:15:00;4.10;;;1.63;;
74158;SDS011;62511;47.970;11.774;2024-03-17T00:17:26;4.55;;;1.80;;
74158;SDS011;62511;47.970;11.774;2024-03-17T00:19:52;3.25;;;1.90;;
74158;SDS011;62511;47.970;11.774;2024-03-17T00:22:18;4.78;;;1.98;;
74158;SDS011;62511;47.970;11.774;2024-03-17T00:24:45;2.17;;;1.60;;
74158;SDS011;62511;47.970;11.774;2024-03-17T00:27:11;3.47;;;1.70;;
74158;SDS011;62511;47.970;11.774;2024-03-17T00:29:38;4.32;;;2.40;;
74158;SDS011;62511;47.970;11.774;2024-03-17T00:32:05;4.28;;;2.40;;
74158;SDS011;62511;47.970;11.774;2024-03-17T00:34:31;4.25;;;2.25;;
74158;SDS011;62511;47.970;11.774;2024-03-17T00:36:57;4.90;;;2.22;;
74158;SDS011;62511;47.970;11.774;2024-03-17T00:39:24;4.13;;;2.47;;
74158;SDS011;62511;47.970;11.774;2024-03-17T00:41:50;3.97;;;1.83;;
74158;SDS011;62511;47.970;11.774;2024-03-17T00:44:16;3.58;;;2.15;;
74158;SDS011;62511;47.970;11.774;2024-03-17T00:46:42;4.72;;;1.70;;
74158;SDS011;62511;47.970;11.774;2024-03-17T00:49:12;3.17;;;1.77;;
74158;SDS011;62511;47.970;11.774;2024-03-17T00:51:38;3.33;;;1.92;;
74158;SDS011;62511;47.970;11.774;2024-03-17T00:54:04;4.43;;;2.22;;
74158;SDS011;62511;47.970;11.774;2024-03-17T00:56:30;3.33;;;1.98;;
74158;SDS011;62511;47.970;11.774;2024-03-17T00:58:56;4.10;;;2.05;;
74158;SDS011;62511;47.970;11.774;2024-03-17T01:01:22;3.22;;;1.92;;
74158;SDS011;62511;47.970;11.774;2024-03-17T01:03:50;4.30;;;2.22;;
74158;SDS011;62511;47.970;11.774;2024-03-17T01:06:16;6.88;;;2.13;;
74158;SDS011;62511;47.970;11.774;2024-03-17T01:08:43;4.00;;;2.13;;
74158;SDS011;62511;47.970;11.774;2024-03-17T01:11:13;3.97;;;2.05;;
74158;SDS011;62511;47.970;11.774;2024-03-17T01:13:39;4.15;;;1.90;;
74158;SDS011;62511;47.970;11.774;2024-03-17T01:16:06;4.70;;;2.33;;
74158;SDS011;62511;47.970;11.774;2024-03-17T01:18:32;4.03;;;2.05;;
74158;SDS011;62511;47.970;11.774;2024-03-17T01:20:59;4.38;;;2.40;;
74158;SDS011;62511;47.970;11.774;2024-03-17T01:23:25;4.20;;;2.17;;
74158;SDS011;62511;47.970;11.774;2024-03-17T01:25:51;3.78;;;1.83;;
74158;SDS011;62511;47.970;11.774;2024-03-17T01:28:17;4.03;;;2.15;;
74158;SDS011;62511;47.970;11.774;2024-03-17T01:30:43;4.63;;;1.73;;
74158;SDS011;62511;47.970;11.774;2024-03-17T01:33:10;3.80;;;2.38;;
74158;SDS011;62511;47.970;11.774;2024-03-17T01:35:37;2.90;;;1.52;;
74158;SDS011;62511;47.970;11.774;2024-03-17T01:38:03;3.75;;;2.13;;
74158;SDS011;62511;47.970;11.774;2024-03-17T01:40:29;4.72;;;2.13;;
74158;SDS011;62511;47.970;11.774;2024-03-17T01:42:55;2.85;;;1.75;;
74158;SDS011;62511;47.970;11.774;2024-03-17T01:45:24;3.97;;;2.13;;
74158;SDS011;62511;47.970;11.774;2024-03-17T01:47:51;6.00;;;2.20;;
74158;SDS011;62511;47.970;11.774;2024-03-17T01:50:18;3.97;;;2.08;;
74158;SDS011;62511;47.970;11.774;2024-03-17T01:52:49;2.63;;;1.55;;
74158;SDS011;62511;47.970;11.774;2024-03-17T01:55:16;4.25;;;1.63;;
74158;SDS011;62511;47.970;11.774;2024-03-17T01:57:43;3.80;;;2.22;;
74158;SDS011;62511;47.970;11.774;2024-03-17T02:00:10;5.38;;;2.00;;
74158;SDS011;62511;47.970;11.774;2024-03-17T02:02:37;4.57;;;2.30;;
74158;SDS011;62511;47.970;11.774;2024-03-17T02:05:04;5.28;;;2.20;;
74158;SDS011;62511;47.970;11.774;2024-03-17T02:07:31;4.30;;;2.20;;
74158;SDS011;62511;47.970;11.774;2024-03-17T02:09:57;4.97;;;2.67;;
74158;SDS011;62511;47.970;11.774;2024-03-17T02:12:23;4.95;;;2.33;;
74158;SDS011;62511;47.970;11.774;2024-03-17T02:14:49;3.80;;;2.40;;
74158;SDS011;62511;47.970;11.774;2024-03-17T02:17:15;5.78;;;1.85;;
74158;SDS011;62511;47.970;11.774;2024-03-17T02:19:42;5.50;;;2.63;;
74158;SDS011;62511;47.970;11.774;2024-03-17T02:22:09;6.75;;;3.92;;
74158;SDS011;62511;47.970;11.774;2024-03-17T02:24:35;10.32;;;5.35;;
74158;SDS011;62511;47.970;11.774;2024-03-17T02:27:01;10.00;;;6.53;;
74158;SDS011;62511;47.970;11.774;2024-03-17T02:29:27;4.82;;;3.85;;
74158;SDS011;62511;47.970;11.774;2024-03-17T02:31:54;7.30;;;3.88;;
74158;SDS011;62511;47.970;11.774;2024-03-17T02:34:20;9.88;;;4.10;;
74158;SDS011;62511;47.970;11.774;2024-03-17T02:36:45;6.57;;;4.45;;
74158;SDS011;62511;47.970;11.774;2024-03-17T02:39:12;7.32;;;4.88;;
74158;SDS011;62511;47.970;11.774;2024-03-17T02:41:56;6.43;;;4.43;;
74158;SDS011;62511;47.970;11.774;2024-03-17T02:44:22;5.95;;;3.88;;
74158;SDS011;62511;47.970;11.774;2024-03-17T02:46:48;5.63;;;3.60;;
74158;SDS011;62511;47.970;11.774;2024-03-17T02:49:14;5.47;;;3.33;;
74158;SDS011;62511;47.970;11.774;2024-03-17T02:51:43;5.53;;;3.65;;
74158;SDS011;62511;47.970;11.774;2024-03-17T02:54:09;6.10;;;3.88;;
74158;SDS011;62511;47.970;11.774;2024-03-17T02:56:35;6.47;;;3.85;;
74158;SDS011;62511;47.970;11.774;2024-03-17T02:59:01;4.47;;;2.67;;
74158;SDS011;62511;47.970;11.774;2024-03-17T03:01:27;5.82;;;2.88;;
74158;SDS011;62511;47.970;11.774;2024-03-17T03:03:53;4.28;;;2.20;;
74158;SDS011;62511;47.970;11.774;2024-03-17T03:06:19;3.38;;;2.17;;
74158;SDS011;62511;47.970;11.774;2024-03-17T03:08:45;4.82;;;3.33;;
74158;SDS011;62511;47.970;11.774;2024-03-17T03:11:14;5.93;;;2.83;;
74158;SDS011;62511;47.970;11.774;2024-03-17T03:13:41;5.07;;;2.83;;
74158;SDS011;62511;47.970;11.774;2024-03-17T03:16:09;5.25;;;2.75;;
74158;SDS011;62511;47.970;11.774;2024-03-17T03:18:35;3.95;;;2.60;;
74158;SDS011;62511;47.970;11.774;2024-03-17T03:21:02;4.47;;;2.60;;
74158;SDS011;62511;47.970;11.774;2024-03-17T03:23:28;4.78;;;2.97;;
74158;SDS011;62511;47.970;11.774;2024-03-17T03:25:54;5.07;;;2.42;;
74158;SDS011;62511;47.970;11.774;2024-03-17T03:30:47;3.42;;;2.10;;
74158;SDS011;62511;47.970;11.774;2024-03-17T03:33:13;4.43;;;2.22;;
74158;SDS011;62511;47.970;11.774;2024-03-17T03:35:39;5.50;;;2.60;;
74158;SDS011;62511;47.970;11.774;2024-03-17T03:38:05;3.15;;;2.28;;
74158;SDS011;62511;47.970;11.774;2024-03-17T03:40:33;4.32;;;1.95;;
74158;SDS011;62511;47.970;11.774;2024-03-17T03:42:59;4.68;;;2.38;;
74158;SDS011;62511;47.970;11.774;2024-03-17T03:45:25;4.88;;;2.30;;
74158;SDS011;62511;47.970;11.774;2024-03-17T03:47:51;4.85;;;2.10;;
74158;SDS011;62511;47.970;11.774;2024-03-17T03:50:19;4.38;;;2.40;;
74158;SDS011;62511;47.970;11.774;2024-03-17T03:52:45;5.43;;;2.65;;
74158;SDS011;62511;47.970;11.774;2024-03-17T03:55:11;4.72;;;2.35;;
74158;SDS011;62511;47.970;11.774;2024-03-17T03:57:41;5.65;;;2.33;;
74158;SDS011;62511;47.970;11.774;2024-03-17T04:00:07;7.80;;;2.75;;
74158;SDS011;62511;47.970;11.774;2024-03-17T04:02:39;4.85;;;2.63;;
74158;SDS011;62511;47.970;11.774;2024-03-17T04:05:05;3.58;;;2.10;;
74158;SDS011;62511;47.970;11.774;2024-03-17T04:07:31;5.28;;;2.33;;
74158;SDS011;62511;47.970;11.774;2024-03-17T04:09:57;4.00;;;2.00;;
74158;SDS011;62511;47.970;11.774;2024-03-17T04:12:24;4.78;;;2.20;;
74158;SDS011;62511;47.970;11.774;2024-03-17T04:14:50;6.03;;;2.47;;
74158;SDS011;62511;47.970;11.774;2024-03-17T04:17:18;3.50;;;2.05;;
74158;SDS011;62511;47.970;11.774;2024-03-17T04:19:46;3.65;;;2.17;;
74158;SDS011;62511;47.970;11.774;2024-03-17T04:22:13;6.50;;;2.33;;
74158;SDS011;62511;47.970;11.774;2024-03-17T04:24:39;4.68;;;2.28;;
74158;SDS011;62511;47.970;11.774;2024-03-17T04:27:05;8.32;;;2.60;;
74158;SDS011;62511;47.970;11.774;2024-03-17T04:29:31;6.35;;;2.63;;
74158;SDS011;62511;47.970;11.774;2024-03-17T04:31:57;4.65;;;2.17;;
74158;SDS011;62511;47.970;11.774;2024-03-17T04:34:26;2.88;;;1.77;;
74158;SDS011;62511;47.970;11.774;2024-03-17T04:36:51;4.15;;;2.20;;
74158;SDS011;62511;47.970;11.774;2024-03-17T04:39:18;4.60;;;2.20;;
74158;SDS011;62511;47.970;11.774;2024-03-17T04:41:44;4.00;;;2.55;;
74158;SDS011;62511;47.970;11.774;2024-03-17T04:44:13;5.50;;;2.28;;
74158;SDS011;62511;47.970;11.774;2024-03-17T04:46:39;4.60;;;3.03;;
74158;SDS011;62511;47.970;11.774;2024-03-17T04:49:05;4.03;;;2.28;;
74158;SDS011;62511;47.970;11.774;2024-03-17T04:51:31;4.13;;;2.22;;
74158;SDS011;62511;47.970;11.774;2024-03-17T04:53:58;3.53;;;2.00;;
74158;SDS011;62511;47.970;11.774;2024-03-17T04:56:24;4.60;;;2.70;;
74158;SDS011;62511;47.970;11.774;2024-03-17T04:58:51;6.55;;;2.42;;
74158;SDS011;62511;47.970;11.774;2024-03-17T05:01:17;4.95;;;2.50;;
74158;SDS011;62511;47.970;11.774;2024-03-17T05:03:43;4.85;;;2.20;;
74158;SDS011;62511;47.970;11.774;2024-03-17T05:06:09;4.43;;;2.42;;
74158;SDS011;62511;47.970;11.774;2024-03-17T05:08:36;3.80;;;1.92;;
74158;SDS011;62511;47.970;11.774;2024-03-17T05:11:04;4.68;;;2.45;;
74158;SDS011;62511;47.970;11.774;2024-03-17T05:13:30;3.10;;;2.10;;
74158;SDS011;62511;47.970;11.774;2024-03-17T05:15:56;7.57;;;2.70;;
74158;SDS011;62511;47.970;11.774;2024-03-17T05:18:22;4.57;;;2.80;;
74158;SDS011;62511;47.970;11.774;2024-03-17T05:20:57;4.93;;;2.65;;
74158;SDS011;62511;47.970;11.774;2024-03-17T05:23:25;5.07;;;2.38;;
74158;SDS011;62511;47.970;11.774;2024-03-17T05:25:51;4.43;;;2.28;;
74158;SDS011;62511;47.970;11.774;2024-03-17T05:28:17;5.03;;;2.70;;
74158;SDS011;62511;47.970;11.774;2024-03-17T05:30:44;4.57;;;2.30;;
74158;SDS011;62511;47.970;11.774;2024-03-17T05:33:10;5.40;;;3.08;;
74158;SDS011;62511;47.970;11.774;2024-03-17T05:35:36;5.15;;;2.63;;
74158;SDS011;62511;47.970;11.774;2024-03-17T05:38:03;4.70;;;2.65;;
74158;SDS011;62511;47.970;11.774;2024-03-17T05:40:29;5.15;;;2.90;;
74158;SDS011;62511;47.970;11.774;2024-03-17T05:42:56;4.65;;;2.70;;
74158;SDS011;62511;47.970;11.774;2024-03-17T05:45:22;4.20;;;2.30;;
74158;SDS011;62511;47.970;11.774;2024-03-17T05:47:49;3.35;;;2.05;;
74158;SDS011;62511;47.970;11.774;2024-03-17T05:52:41;4.03;;;1.90;;
74158;SDS011;62511;47.970;11.774;2024-03-17T05:55:07;4.68;;;2.35;;
74158;SDS011;62511;47.970;11.774;2024-03-17T05:57:36;4.07;;;2.03;;
74158;SDS011;62511;47.970;11.774;2024-03-17T06:00:02;5.65;;;2.70;;
74158;SDS011;62511;47.970;11.774;2024-03-17T06:02:28;5.00;;;2.90;;
74158;SDS011;62511;47.970;11.774;2024-03-17T06:04:55;3.50;;;2.03;;
74158;SDS011;62511;47.970;11.774;2024-03-17T06:07:23;3.72;;;2.00;;
74158;SDS011;62511;47.970;11.774;2024-03-17T06:09:49;3.65;;;2.08;;
74158;SDS011;62511;47.970;11.774;2024-03-17T06:12:15;2.97;;;2.03;;
74158;SDS011;62511;47.970;11.774;2024-03-17T06:14:41;5.05;;;2.45;;
74158;SDS011;62511;47.970;11.774;2024-03-17T06:17:07;4.13;;;2.30;;
74158;SDS011;62511;47.970;11.774;2024-03-17T06:19:34;2.75;;;1.67;;
74158;SDS011;62511;47.970;11.774;2024-03-17T06:22:00;3.75;;;2.10;;
74158;SDS011;62511;47.970;11.774;2024-03-17T06:24:26;3.88;;;2.08;;
74158;SDS011;62511;47.970;11.774;2024-03-17T06:26:52;3.70;;;2.13;;
74158;SDS011;62511;47.970;11.774;2024-03-17T06:29:18;7.72;;;5.07;;
74158;SDS011;62511;47.970;11.774;2024-03-17T06:31:45;4.18;;;2.88;;
74158;SDS011;62511;47.970;11.774;2024-03-17T06:34:12;4.25;;;2.45;;
74158;SDS011;62511;47.970;11.774;2024-03-17T06:36:40;4.50;;;2.40;;
74158;SDS011;62511;47.970;11.774;2024-03-17T06:39:07;3.80;;;2.22;;
74158;SDS011;62511;47.970;11.774;2024-03-17T06:41:33;4.95;;;2.15;;
74158;SDS011;62511;47.970;11.774;2024-03-17T06:43:59;3.88;;;2.45;;
74158;SDS011;62511;47.970;11.774;2024-03-17T06:46:25;3.35;;;2.25;;
74158;SDS011;62511;47.970;11.774;2024-03-17T06:48:51;5.70;;;2.35;;
74158;SDS011;62511;47.970;11.774;2024-03-17T06:51:18;5.32;;;2.90;;
74158;SDS011;62511;47.970;11.774;2024-03-17T06:53:44;5.63;;;2.75;;
74158;SDS011;62511;47.970;11.774;2024-03-17T06:56:10;7.50;;;3.15;;
74158;SDS011;62511;47.970;11.774;2024-03-17T06:58:36;7.43;;;3.33;;
74158;SDS011;62511;47.970;11.774;2024-03-17T07:01:02;5.95;;;3.47;;
74158;SDS011;62511;47.970;11.774;2024-03-17T07:03:29;6.72;;;3.35;;
74158;SDS011;62511;47.970;11.774;2024-03-17T07:05:57;7.10;;;3.70;;
74158;SDS011;62511;47.970;11.774;2024-03-17T07:08:23;7.55;;;3.22;;
74158;SDS011;62511;47.970;11.774;2024-03-17T07:10:59;7.03;;;3.33;;
74158;SDS011;62511;47.970;11.774;2024-03-17T07:13:28;8.10;;;3.45;;
74158;SDS011;62511;47.970;11.774;2024-03-17T07:15:54;6.95;;;3.10;;
74158;SDS011;62511;47.970;11.774;2024-03-17T07:18:20;8.20;;;3.50;;
74158;SDS011;62511;47.970;11.774;2024-03-17T07:20:46;5.43;;;3.00;;
74158;SDS011;62511;47.970;11.774;2024-03-17T07:23:13;6.78;;;3.28;;
74158;SDS011;62511;47.970;11.774;2024-03-17T07:25:40;5.40;;;2.83;;
74158;SDS011;62511;47.970;11.774;2024-03-17T07:28:07;8.55;;;3.35;;
74158;SDS011;62511;47.970;11.774;2024-03-17T07:30:33;6.85;;;3.65;;
74158;SDS011;62511;47.970;11.774;2024-03-17T07:32:59;8.90;;;3.40;;
74158;SDS011;62511;47.970;11.774;2024-03-17T07:35:25;6.10;;;3.22;;
74158;SDS011;62511;47.970;11.774;2024-03-17T07:37:51;8.43;;;3.10;;
74158;SDS011;62511;47.970;11.774;2024-03-17T07:40:17;7.38;;;3.42;;
74158;SDS011;62511;47.970;11.774;2024-03-17T07:42:43;6.07;;;3.42;;
74158;SDS011;62511;47.970;11.774;2024-03-17T07:45:11;6.43;;;3.20;;
74158;SDS011;62511;47.970;11.774;2024-03-17T07:47:37;5.63;;;2.60;;
74158;SDS011;62511;47.970;11.774;2024-03-17T07:50:03;4.95;;;2.65;;
74158;SDS011;62511;47.970;11.774;2024-03-17T07:52:33;4.75;;;2.90;;
74158;SDS011;62511;47.970;11.774;2024-03-17T07:54:59;4.78;;;2.50;;
74158;SDS011;62511;47.970;11.774;2024-03-17T07:57:25;4.05;;;2.53;;
74158;SDS011;62511;47.970;11.774;2024-03-17T07:59:52;4.85;;;3.05;;
74158;SDS011;62511;47.970;11.774;2024-03-17T08:02:18;5.25;;;2.38;;
74158;SDS011;62511;47.970;11.774;2024-03-17T08:04:44;5.28;;;2.53;;
74158;SDS011;62511;47.970;11.774;2024-03-17T08:07:10;5.20;;;2.90;;
74158;SDS011;62511;47.970;11.774;2024-03-17T08:09:36;4.72;;;2.30;;
74158;SDS011;62511;47.970;11.774;2024-03-17T08:12:02;4.20;;;2.60;;
74158;SDS011;62511;47.970;11.774;2024-03-17T08:14:29;5.53;;;2.35;;
74158;SDS011;62511;47.970;11.774;2024-03-17T08:16:55;7.45;;;1.98;;
74158;SDS011;62511;47.970;11.774;2024-03-17T08:19:21;4.35;;;2.42;;
74158;SDS011;62511;47.970;11.774;2024-03-17T08:21:47;3.83;;;2.05;;
74158;SDS011;62511;47.970;11.774;2024-03-17T08:24:14;4.43;;;2.38;;
74158;SDS011;62511;47.970;11.774;2024-03-17T08:26:40;4.95;;;2.70;;
74158;SDS011;62511;47.970;11.774;2024-03-17T08:29:06;4.60;;;2.80;;
74158;SDS011;62511;47.970;11.774;2024-03-17T08:31:32;3.83;;;2.25;;
74158;SDS011;62511;47.970;11.774;2024-03-17T08:33:58;4.18;;;2.20;;
74158;SDS011;62511;47.970;11.774;2024-03-17T08:36:24;4.82;;;2.35;;
74158;SDS011;62511;47.970;11.774;2024-03-17T08:38:51;4.90;;;2.35;;
74158;SDS011;62511;47.970;11.774;2024-03-17T08:41:17;4.88;;;2.78;;
74158;SDS011;62511;47.970;11.774;2024-03-17T08:43:43;3.15;;;2.03;;
74158;SDS011;62511;47.970;11.774;2024-03-17T08:46:09;3.22;;;2.17;;
74158;SDS011;62511;47.970;11.774;2024-03-17T08:48:38;3.55;;;2.13;;
74158;SDS011;62511;47.970;11.774;2024-03-17T08:51:05;3.55;;;2.40;;
74158;SDS011;62511;47.970;11.774;2024-03-17T08:53:31;3.95;;;2.15;;
74158;SDS011;62511;47.970;11.774;2024-03-17T08:55:58;3.50;;;2.00;;
74158;SDS011;62511;47.970;11.774;2024-03-17T08:58:24;3.00;;;1.88;;
74158;SDS011;62511;47.970;11.774;2024-03-17T09:00:50;1.92;;;1.58;;
74158;SDS011;62511;47.970;11.774;2024-03-17T09:03:16;3.72;;;2.03;;
74158;SDS011;62511;47.970;11.774;2024-03-17T09:05:43;3.53;;;1.67;;
74158;SDS011;62511;47.970;11.774;2024-03-17T09:08:15;2.83;;;1.70;;
74158;SDS011;62511;47.970;11.774;2024-03-17T09:10:42;3.42;;;2.00;;
74158;SDS011;62511;47.970;11.774;2024-03-17T09:13:15;4.63;;;1.50;;
74158;SDS011;62511;47.970;11.774;2024-03-17T09:15:54;1.75;;;1.10;;
74158;SDS011;62511;47.970;11.774;2024-03-17T09:20:55;3.10;;;1.30;;
74158;SDS011;62511;47.970;11.774;2024-03-17T09:23:21;3.30;;;1.70;;
74158;SDS011;62511;47.970;11.774;2024-03-17T09:25:55;3.13;;;1.50;;
74158;SDS011;62511;47.970;11.774;2024-03-17T09:28:21;3.05;;;1.83;;
74158;SDS011;62511;47.970;11.774;2024-03-17T09:30:47;2.05;;;1.50;;
74158;SDS011;62511;47.970;11.774;2024-03-17T09:33:13;2.35;;;1.48;;
74158;SDS011;62511;47.970;11.774;2024-03-17T09:35:39;4.03;;;1.40;;
74158;SDS011;62511;47.970;11.774;2024-03-17T09:38:05;2.08;;;1.50;;
74158;SDS011;62511;47.970;11.774;2024-03-17T09:40:31;2.30;;;1.23;;
74158;SDS011;62511;47.970;11.774;2024-03-17T09:42:58;3.40;;;1.60;;
74158;SDS011;62511;47.970;11.774;2024-03-17T09:45:24;3.92;;;1.73;;
74158;SDS011;62511;47.970;11.774;2024-03-17T09:47:50;3.30;;;1.30;;
74158;SDS011;62511;47.970;11.774;2024-03-17T09:50:16;2.28;;;1.10;;
74158;SDS011;62511;47.970;11.774;2024-03-17T09:52:44;1.20;;;0.90;;
74158;SDS011;62511;47.970;11.774;2024-03-17T09:57:36;2.35;;;0.90;;
74158;SDS011;62511;47.970;11.774;2024-03-17T10:00:13;2.05;;;0.65;;
74158;SDS011;62511;47.970;11.774;2024-03-17T10:02:44;1.58;;;0.52;;
74158;SDS011;62511;47.970;11.774;2024-03-17T10:05:28;1.77;;;0.70;;
74158;SDS011;62511;47.970;11.774;2024-03-17T10:07:55;1.48;;;0.77;;
74158;SDS011;62511;47.970;11.774;2024-03-17T10:10:21;1.85;;;0.70;;
74158;SDS011;62511;47.970;11.774;2024-03-17T10:12:49;2.25;;;0.82;;
74158;SDS011;62511;47.970;11.774;2024-03-17T10:17:42;2.35;;;0.77;;
74158;SDS011;62511;47.970;11.774;2024-03-17T10:20:15;3.80;;;0.75;;
74158;SDS011;62511;47.970;11.774;2024-03-17T10:23:03;1.52;;;0.60;;
74158;SDS011;62511;47.970;11.774;2024-03-17T10:25:29;2.25;;;0.70;;
74158;SDS011;62511;47.970;11.774;2024-03-17T10:27:55;1.33;;;0.63;;
74158;SDS011;62511;47.970;11.774;2024-03-17T10:30:22;0.65;;;0.50;;
74158;SDS011;62511;47.970;11.774;2024-03-17T10:32:59;1.58;;;0.65;;
74158;SDS011;62511;47.970;11.774;2024-03-17T10:35:35;1.58;;;0.82;;
74158;SDS011;62511;47.970;11.774;2024-03-17T10:38:04;1.10;;;0.80;;
74158;SDS011;62511;47.970;11.774;2024-03-17T10:40:30;1.38;;;0.73;;
74158;SDS011;62511;47.970;11.774;2024-03-17T10:43:00;1.00;;;0.57;;
74158;SDS011;62511;47.970;11.774;2024-03-17T10:45:27;1.70;;;0.77;;
74158;SDS011;62511;47.970;11.774;2024-03-17T10:47:58;0.85;;;0.50;;
74158;SDS011;62511;47.970;11.774;2024-03-17T10:50:25;1.65;;;0.77;;
74158;SDS011;62511;47.970;11.774;2024-03-17T10:52:55;1.58;;;0.50;;
74158;SDS011;62511;47.970;11.774;2024-03-17T10:55:25;1.73;;;0.45;;
74158;SDS011;62511;47.970;11.774;2024-03-17T10:57:51;1.75;;;0.55;;
74158;SDS011;62511;47.970;11.774;2024-03-17T11:00:19;1.02;;;0.55;;
74158;SDS011;62511;47.970;11.774;2024-03-17T11:02:47;1.15;;;0.45;;
74158;SDS011;62511;47.970;11.774;2024-03-17T11:05:23;1.77;;;0.43;;
74158;SDS011;62511;47.970;11.774;2024-03-17T11:07:52;1.27;;;0.40;;
74158;SDS011;62511;47.970;11.774;2024-03-17T11:10:27;1.23;;;0.47;;
74158;SDS011;62511;47.970;11.774;2024-03-17T11:12:54;0.95;;;0.45;;
74158;SDS011;62511;47.970;11.774;2024-03-17T11:17:50;2.38;;;0.50;;
74158;SDS011;62511;47.970;11.774;2024-03-17T11:20:26;0.43;;;0.30;;
74158;SDS011;62511;47.970;11.774;2024-03-17T11:23:02;1.38;;;0.30;;
74158;SDS011;62511;47.970;11.774;2024-03-17T11:28:13;0.88;;;0.32;;
74158;SDS011;62511;47.970;11.774;2024-03-17T11:47:01;2.67;;;0.50;;
74158;SDS011;62511;47.970;11.774;2024-03-17T11:49:46;2.38;;;0.47;;
74158;SDS011;62511;47.970;11.774;2024-03-17T11:52:16;2.00;;;0.32;;
74158;SDS011;62511;47.970;11.774;2024-03-17T11:54:46;0.30;;;0.20;;
74158;SDS011;62511;47.970;11.774;2024-03-17T11:57:21;1.83;;;0.40;;
74158;SDS011;62511;47.970;11.774;2024-03-17T11:59:47;0.40;;;0.22;;
74158;SDS011;62511;47.970;11.774;2024-03-17T12:02:27;2.05;;;0.50;;
74158;SDS011;62511;47.970;11.774;2024-03-17T12:04:57;1.27;;;0.38;;
74158;SDS011;62511;47.970;11.774;2024-03-17T12:07:42;2.08;;;0.50;;
74158;SDS011;62511;47.970;11.774;2024-03-17T12:10:15;2.85;;;0.30;;
74158;SDS011;62511;47.970;11.774;2024-03-17T12:12:46;0.43;;;0.25;;
74158;SDS011;62511;47.970;11.774;2024-03-17T12:15:16;1.17;;;0.30;;
74158;SDS011;62511;47.970;11.774;2024-03-17T12:17:42;1.02;;;0.20;;
74158;SDS011;62511;47.970;11.774;2024-03-17T12:20:23;2.17;;;0.80;;
74158;SDS011;62511;47.970;11.774;2024-03-17T12:22:49;1.00;;;0.32;;
74158;SDS011;62511;47.970;11.774;2024-03-17T12:25:19;2.40;;;0.40;;
74158;SDS011;62511;47.970;11.774;2024-03-17T12:27:48;1.75;;;0.40;;
74158;SDS011;62511;47.970;11.774;2024-03-17T12:30:15;1.77;;;0.40;;
74158;SDS011;62511;47.970;11.774;2024-03-17T12:32:44;0.28;;;0.28;;
74158;SDS011;62511;47.970;11.774;2024-03-17T12:35:15;1.23;;;0.35;;
74158;SDS011;62511;47.970;11.774;2024-03-17T12:37:45;0.98;;;0.30;;
74158;SDS011;62511;47.970;11.774;2024-03-17T12:40:18;0.50;;;0.25;;
74158;SDS011;62511;47.970;11.774;2024-03-17T12:42:49;1.73;;;0.65;;
74158;SDS011;62511;47.970;11.774;2024-03-17T12:45:18;1.13;;;0.32;;
74158;SDS011;62511;47.970;11.774;2024-03-17T12:47:47;0.47;;;0.20;;
74158;SDS011;62511;47.970;11.774;2024-03-17T12:50:13;0.98;;;0.28;;
74158;SDS011;62511;47.970;11.774;2024-03-17T12:52:39;1.02;;;0.30;;
74158;SDS011;62511;47.970;11.774;2024-03-17T12:55:09;2.35;;;0.38;;
74158;SDS011;62511;47.970;11.774;2024-03-17T12:58:06;0.88;;;0.20;;
74158;SDS011;62511;47.970;11.774;2024-03-17T13:01:01;1.42;;;0.55;;
74158;SDS011;62511;47.970;11.774;2024-03-17T13:03:28;1.70;;;0.70;;
74158;SDS011;62511;47.970;11.774;2024-03-17T13:05:56;3.25;;;0.93;;
74158;SDS011;62511;47.970;11.774;2024-03-17T13:08:23;0.90;;;0.38;;
74158;SDS011;62511;47.970;11.774;2024-03-17T13:10:49;1.85;;;0.40;;
74158;SDS011;62511;47.970;11.774;2024-03-17T13:13:17;1.23;;;0.38;;
74158;SDS011;62511;47.970;11.774;2024-03-17T13:15:47;2.10;;;0.30;;
74158;SDS011;62511;47.970;11.774;2024-03-17T13:18:18;1.23;;;0.60;;
74158;SDS011;62511;47.970;11.774;2024-03-17T13:20:47;3.70;;;0.50;;
74158;SDS011;62511;47.970;11.774;2024-03-17T13:23:18;0.75;;;0.22;;
74158;SDS011;62511;47.970;11.774;2024-03-17T13:25:49;3.65;;;0.88;;
74158;SDS011;62511;47.970;11.774;2024-03-17T13:28:18;0.25;;;0.25;;
74158;SDS011;62511;47.970;11.774;2024-03-17T13:30:44;0.90;;;0.40;;
74158;SDS011;62511;47.970;11.774;2024-03-17T13:33:12;1.30;;;0.38;;
74158;SDS011;62511;47.970;11.774;2024-03-17T13:35:39;1.75;;;0.30;;
74158;SDS011;62511;47.970;11.774;2024-03-17T13:38:06;2.60;;;0.50;;
74158;SDS011;62511;47.970;11.774;2024-03-17T13:40:38;0.88;;;0.57;;
74158;SDS011;62511;47.970;11.774;2024-03-17T13:43:04;0.95;;;0.32;;
74158;SDS011;62511;47.970;11.774;2024-03-17T13:45:48;2.53;;;0.30;;
74158;SDS011;62511;47.970;11.774;2024-03-17T13:48:17;0.73;;;0.22;;
74158;SDS011;62511;47.970;11.774;2024-03-17T13:50:43;1.83;;;0.20;;
74158;SDS011;62511;47.970;11.774;2024-03-17T13:53:12;0.70;;;0.40;;
74158;SDS011;62511;47.970;11.774;2024-03-17T13:55:40;1.45;;;0.52;;
74158;SDS011;62511;47.970;11.774;2024-03-17T13:58:06;1.95;;;0.50;;
74158;SDS011;62511;47.970;11.774;2024-03-17T14:00:33;0.70;;;0.40;;
74158;SDS011;62511;47.970;11.774;2024-03-17T14:03:02;0.60;;;0.30;;
74158;SDS011;62511;47.970;11.774;2024-03-17T14:05:29;0.70;;;0.35;;
74158;SDS011;62511;47.970;11.774;2024-03-17T14:10:24;0.20;;;0.20;;
74158;SDS011;62511;47.970;11.774;2024-03-17T14:12:51;0.82;;;0.32;;
74158;SDS011;62511;47.970;11.774;2024-03-17T14:15:18;0.40;;;0.13;;
74158;SDS011;62511;47.970;11.774;2024-03-17T14:17:51;1.08;;;0.30;;
74158;SDS011;62511;47.970;11.774;2024-03-17T14:20:18;1.83;;;0.30;;
74158;SDS011;62511;47.970;11.774;2024-03-17T14:22:45;1.42;;;0.20;;
74158;SDS011;62511;47.970;11.774;2024-03-17T14:25:15;2.35;;;0.65;;
74158;SDS011;62511;47.970;11.774;2024-03-17T14:27:42;2.75;;;0.45;;
74158;SDS011;62511;47.970;11.774;2024-03-17T14:30:10;0.38;;;0.38;;
74158;SDS011;62511;47.970;11.774;2024-03-17T14:32:38;1.45;;;0.30;;
74158;SDS011;62511;47.970;11.774;2024-03-17T14:35:05;1.20;;;0.47;;
74158;SDS011;62511;47.970;11.774;2024-03-17T14:37:33;1.25;;;0.50;;
74158;SDS011;62511;47.970;11.774;2024-03-17T14:39:59;0.75;;;0.30;;
74158;SDS011;62511;47.970;11.774;2024-03-17T14:42:25;3.50;;;0.60;;
74158;SDS011;62511;47.970;11.774;2024-03-17T14:44:56;2.50;;;1.05;;
74158;SDS011;62511;47.970;11.774;2024-03-17T14:47:22;1.92;;;0.52;;
74158;SDS011;62511;47.970;11.774;2024-03-17T14:49:49;2.10;;;0.52;;
74158;SDS011;62511;47.970;11.774;2024-03-17T14:52:16;3.55;;;0.70;;
74158;SDS011;62511;47.970;11.774;2024-03-17T14:54:46;0.82;;;0.40;;
74158;SDS011;62511;47.970;11.774;2024-03-17T14:57:18;0.38;;;0.30;;
74158;SDS011;62511;47.970;11.774;2024-03-17T14:59:45;0.73;;;0.30;;
74158;SDS011;62511;47.970;11.774;2024-03-17T15:02:11;1.58;;;0.40;;
74158;SDS011;62511;47.970;11.774;2024-03-17T15:04:37;3.67;;;0.60;;
74158;SDS011;62511;47.970;11.774;2024-03-17T15:07:03;1.65;;;0.38;;
74158;SDS011;62511;47.970;11.774;2024-03-17T15:09:29;1.60;;;0.50;;
74158;SDS011;62511;47.970;11.774;2024-03-17T15:11:57;0.90;;;0.35;;